createdAt,value
2023-05-21T00:00:38.669Z,70.40
2023-05-21T00:03:13.769Z,70.99
2023-05-21T00:05:53.485Z,71.79
2023-05-21T00:08:23.051Z,73.31
2023-05-21T00:10:49.654Z,74.41
2023-05-21T00:13:16.416Z,76.37
2023-05-21T00:15:45.329Z,74.55
2023-05-21T00:18:12.107Z,72.83
2023-05-21T00:20:41.126Z,73.20
2023-05-21T00:23:07.870Z,72.30
2023-05-21T00:25:34.723Z,71.95
2023-05-21T00:28:01.670Z,71.91
2023-05-21T00:30:28.288Z,72.65
2023-05-21T00:32:55.009Z,72.12
2023-05-21T00:35:21.802Z,71.44
2023-05-21T00:37:48.487Z,70.68
2023-05-21T00:40:15.675Z,71.58
2023-05-21T00:42:46.543Z,71.37
2023-05-21T00:45:14.846Z,71.51
2023-05-21T00:47:42.127Z,71.82
2023-05-21T00:50:16.250Z,71.59
2023-05-21T00:52:44.103Z,72.34
2023-05-21T00:55:11.028Z,72.59
2023-05-21T00:57:38.286Z,72.95
2023-05-21T01:00:10.749Z,74.95
2023-05-21T01:02:38.306Z,73.53
2023-05-21T01:05:07.910Z,73.41
2023-05-21T01:07:35.315Z,73.68
2023-05-21T01:10:06.155Z,73.07
2023-05-21T01:12:36.153Z,72.64
2023-05-21T01:15:04.158Z,73.08
2023-05-21T01:17:31.985Z,72.20
2023-05-21T01:19:59.491Z,72.60
2023-05-21T01:22:28.594Z,71.77
2023-05-21T01:24:55.613Z,71.86
2023-05-21T01:27:22.920Z,72.57
2023-05-21T01:29:50.393Z,71.31
2023-05-21T01:32:17.055Z,71.78
2023-05-21T01:35:02.454Z,71.36
2023-05-21T01:37:49.918Z,71.66
2023-05-21T01:40:22.481Z,72.14
2023-05-21T01:42:49.411Z,72.26
2023-05-21T01:45:16.389Z,72.21
2023-05-21T01:47:47.739Z,72.98
2023-05-21T01:50:17.690Z,72.97
2023-05-21T01:52:56.939Z,72.64
2023-05-21T01:55:24.834Z,73.05
2023-05-21T01:57:53.522Z,73.48
2023-05-21T02:00:24.180Z,72.92
2023-05-21T02:02:51.859Z,73.11
2023-05-21T02:05:21.711Z,71.85
2023-05-21T02:07:49.841Z,71.88
2023-05-21T02:10:19.379Z,72.11
2023-05-21T02:12:46.399Z,71.29
2023-05-21T02:15:16.922Z,71.88
2023-05-21T02:17:44.433Z,72.66
2023-05-21T02:20:12.394Z,72.03
2023-05-21T02:22:40.575Z,73.41
2023-05-21T02:25:14.704Z,72.42
2023-05-21T02:27:42.571Z,73.08
2023-05-21T02:30:10.670Z,73.74
2023-05-21T02:32:37.673Z,72.77
2023-05-21T02:35:04.689Z,72.56
2023-05-21T02:37:34.856Z,74.99
2023-05-21T02:40:07.994Z,75.38
2023-05-21T02:42:39.200Z,76.62
2023-05-21T02:45:10.281Z,73.53
2023-05-21T02:47:39.334Z,72.87
2023-05-21T02:50:07.927Z,73.57
2023-05-21T02:52:38.408Z,73.32
2023-05-21T02:55:05.275Z,73.52
2023-05-21T02:57:31.911Z,74.42
2023-05-21T02:59:58.603Z,73.97
2023-05-21T03:02:25.334Z,73.89
2023-05-21T03:04:52.476Z,73.91
2023-05-21T03:07:20.087Z,74.64
2023-05-21T03:09:54.947Z,74.71
2023-05-21T03:12:21.685Z,74.52
2023-05-21T03:14:49.387Z,74.64
2023-05-21T03:17:16.485Z,74.21
2023-05-21T03:19:46.573Z,74.31
2023-05-21T03:22:13.275Z,74.91
2023-05-21T03:24:39.989Z,74.56
2023-05-21T03:27:07.226Z,73.89
2023-05-21T03:29:34.804Z,73.61
2023-05-21T03:32:08.906Z,73.94
2023-05-21T03:34:35.913Z,77.21
2023-05-21T03:37:03.139Z,77.43
2023-05-21T03:39:31.223Z,79.72
2023-05-21T03:42:01.027Z,81.45
2023-05-21T03:44:50.068Z,80.65
2023-05-21T03:47:42.113Z,77.69
2023-05-21T03:50:13.005Z,77.18
2023-05-21T03:52:40.508Z,77.25
2023-05-21T03:55:07.522Z,77.39
2023-05-21T03:57:35.196Z,76.44
2023-05-21T04:00:01.888Z,76.35
2023-05-21T04:02:30.556Z,76.97
2023-05-21T04:04:57.927Z,76.51
2023-05-21T04:07:24.875Z,77.27
2023-05-21T04:09:51.570Z,76.80
2023-05-21T04:12:20.268Z,76.38
2023-05-21T04:14:47.558Z,77.81
2023-05-21T04:17:19.268Z,77.50
2023-05-21T04:19:46.052Z,77.60
2023-05-21T04:22:13.451Z,78.67
2023-05-21T04:24:42.464Z,77.57
2023-05-21T04:27:16.817Z,77.04
2023-05-21T04:29:44.576Z,76.70
2023-05-21T04:32:11.779Z,77.07
2023-05-21T04:34:39.933Z,78.18
2023-05-21T04:37:09.458Z,78.31
2023-05-21T04:39:36.388Z,77.36
2023-05-21T04:42:03.419Z,79.12
2023-05-21T04:44:30.382Z,78.32
2023-05-21T04:46:59.043Z,78.98
2023-05-21T04:49:25.765Z,77.04
2023-05-21T04:51:53.302Z,75.60
2023-05-21T04:54:23.376Z,76.42
2023-05-21T04:56:50.187Z,77.33
2023-05-21T04:59:17.483Z,77.90
2023-05-21T05:01:44.292Z,76.51
2023-05-21T05:04:10.982Z,75.64
2023-05-21T05:06:37.681Z,76.47
2023-05-21T05:09:04.900Z,76.20
2023-05-21T05:11:31.630Z,76.42
2023-05-21T05:13:58.330Z,75.42
2023-05-21T05:16:28.419Z,73.58
2023-05-21T05:18:56.957Z,72.89
2023-05-21T05:21:24.195Z,73.71
2023-05-21T05:23:51.085Z,73.54
2023-05-21T05:26:19.807Z,72.17
2023-05-21T05:28:46.863Z,73.88
2023-05-21T05:31:13.852Z,73.15
2023-05-21T05:33:44.762Z,74.65
2023-05-21T05:36:11.857Z,73.30
2023-05-21T05:38:38.697Z,73.27
2023-05-21T05:41:05.341Z,73.28
2023-05-21T05:43:35.055Z,73.17
2023-05-21T05:46:01.856Z,72.04
2023-05-21T05:48:28.809Z,71.85
2023-05-21T05:50:57.252Z,71.43
2023-05-21T05:53:25.851Z,71.70
2023-05-21T05:55:53.140Z,72.86
2023-05-21T05:58:20.010Z,72.01
2023-05-21T06:01:06.831Z,71.99
2023-05-21T06:03:33.812Z,72.98
2023-05-21T06:06:06.264Z,71.61
2023-05-21T06:08:37.424Z,73.60
2023-05-21T06:11:04.888Z,72.26
2023-05-21T06:13:32.128Z,71.80
2023-05-21T06:15:58.874Z,74.19
2023-05-21T06:18:25.750Z,74.19
2023-05-21T06:20:53.047Z,72.82
2023-05-21T06:23:24.447Z,72.17
2023-05-21T06:25:51.156Z,71.77
2023-05-21T06:28:19.207Z,72.20
2023-05-21T06:30:47.541Z,73.44
2023-05-21T06:33:16.668Z,72.31
2023-05-21T06:35:44.032Z,72.99
2023-05-21T06:38:11.476Z,71.15
2023-05-21T06:40:38.144Z,72.44
2023-05-21T06:43:05.498Z,71.82
2023-05-21T06:45:51.010Z,71.02
2023-05-21T06:48:27.342Z,70.67
2023-05-21T06:50:54.290Z,70.24
2023-05-21T06:53:23.859Z,72.08
2023-05-21T06:55:53.934Z,70.98
2023-05-21T06:58:31.311Z,71.60
2023-05-21T07:00:58.426Z,70.82
2023-05-21T07:03:27.329Z,72.03
2023-05-21T07:05:54.229Z,71.00
2023-05-21T07:08:21.413Z,71.21
2023-05-21T07:10:49.192Z,71.29
2023-05-21T07:13:17.336Z,69.50
2023-05-21T07:15:44.493Z,69.98
2023-05-21T07:18:12.139Z,68.83
2023-05-21T07:20:39.210Z,70.34
2023-05-21T07:23:08.966Z,71.38
2023-05-21T07:25:36.258Z,71.35
2023-05-21T07:28:06.531Z,70.71
2023-05-21T07:30:33.725Z,69.87
2023-05-21T07:33:02.577Z,70.59
2023-05-21T07:35:29.509Z,70.68
2023-05-21T07:37:56.512Z,69.48
2023-05-21T07:40:23.294Z,68.57
2023-05-21T07:42:51.332Z,68.80
2023-05-21T07:45:19.864Z,69.36
2023-05-21T07:47:49.440Z,69.01
2023-05-21T07:50:17.232Z,68.50
2023-05-21T07:52:44.743Z,68.91
2023-05-21T07:55:12.850Z,67.97
2023-05-21T07:57:40.849Z,68.00
2023-05-21T08:13:43.920Z,68.58
2023-05-21T08:16:13.085Z,68.23
2023-05-21T08:18:39.794Z,67.29
2023-05-21T08:21:06.517Z,69.06
2023-05-21T08:23:33.241Z,68.36
2023-05-21T08:26:00.477Z,67.42
2023-05-21T08:28:28.816Z,67.01
2023-05-21T08:30:56.418Z,66.34
2023-05-21T08:33:24.465Z,66.31
2023-05-21T08:35:51.666Z,66.41
2023-05-21T08:38:22.980Z,65.42
2023-05-21T08:41:13.309Z,66.21
2023-05-21T08:43:40.193Z,66.08
2023-05-21T08:46:06.986Z,65.67
2023-05-21T08:48:37.396Z,66.36
2023-05-21T08:51:04.362Z,66.88
2023-05-21T08:53:35.188Z,66.94
2023-05-21T08:56:05.716Z,67.42
2023-05-21T08:58:46.578Z,66.97
2023-05-21T09:01:22.920Z,65.21
2023-05-21T09:04:04.868Z,64.72
2023-05-21T09:06:35.640Z,64.58
2023-05-21T09:09:06.709Z,65.86
2023-05-21T09:11:42.267Z,66.21
2023-05-21T09:14:10.146Z,66.71
2023-05-21T09:17:01.473Z,65.22
2023-05-21T09:19:32.176Z,64.13
2023-05-21T09:22:06.245Z,64.19
2023-05-21T09:24:36.256Z,65.98
2023-05-21T09:27:08.033Z,64.60
2023-05-21T09:29:35.590Z,63.94
2023-05-21T09:32:06.098Z,63.00
2023-05-21T09:34:36.182Z,63.44
2023-05-21T09:37:03.721Z,64.25
2023-05-21T09:39:33.516Z,62.12
2023-05-21T09:42:02.786Z,61.04
2023-05-21T09:44:29.586Z,58.83
2023-05-21T09:47:00.499Z,59.96
2023-05-21T09:49:28.215Z,56.92
2023-05-21T09:51:57.162Z,57.06
2023-05-21T09:54:24.435Z,58.69
2023-05-21T09:56:52.311Z,58.10
2023-05-21T09:59:20.597Z,59.01
2023-05-21T10:01:47.273Z,58.18
2023-05-21T10:04:14.188Z,59.04
2023-05-21T10:06:43.115Z,58.16
2023-05-21T10:09:10.876Z,58.47
2023-05-21T10:11:37.926Z,58.52
2023-05-21T10:14:04.527Z,56.82
2023-05-21T10:16:34.460Z,56.50
2023-05-21T10:19:01.403Z,56.04
2023-05-21T10:21:28.479Z,55.92
2023-05-21T10:23:56.584Z,55.71
2023-05-21T10:26:24.254Z,55.35
2023-05-21T10:28:51.262Z,55.48
2023-05-21T10:31:18.099Z,55.12
2023-05-21T10:33:45.035Z,54.12
2023-05-21T10:36:11.950Z,54.32
2023-05-21T10:38:38.860Z,54.41
2023-05-21T10:41:07.232Z,54.43
2023-05-21T10:43:43.069Z,53.57
2023-05-21T10:46:09.736Z,52.75
2023-05-21T10:48:36.730Z,51.90
2023-05-21T10:51:15.740Z,52.38
2023-05-21T10:53:52.108Z,52.15
2023-05-21T10:56:25.740Z,51.43
2023-05-21T10:59:10.131Z,51.40
2023-05-21T11:01:38.118Z,49.83
2023-05-21T11:04:05.415Z,50.40
2023-05-21T11:06:32.190Z,49.43
2023-05-21T11:09:14.648Z,48.78
2023-05-21T11:11:47.163Z,48.00
2023-05-21T11:14:31.643Z,47.27
2023-05-21T11:17:01.242Z,47.65
2023-05-21T11:19:35.689Z,44.97
2023-05-21T11:22:05.854Z,44.96
2023-05-21T11:24:32.711Z,43.38
2023-05-21T11:27:02.410Z,43.90
2023-05-21T11:29:42.237Z,42.43
2023-05-21T11:32:09.479Z,40.74
2023-05-21T11:34:46.184Z,41.66
2023-05-21T11:37:20.821Z,39.27
2023-05-21T11:39:48.146Z,37.79
2023-05-21T11:42:27.700Z,39.62
2023-05-21T11:44:56.196Z,38.33
2023-05-21T11:47:22.931Z,37.60
2023-05-21T11:49:49.668Z,39.36
2023-05-21T11:52:16.585Z,38.42
2023-05-21T11:54:46.558Z,37.16
2023-05-21T11:57:17.414Z,35.08
2023-05-21T11:59:44.762Z,36.69
2023-05-21T12:02:16.104Z,37.66
2023-05-21T12:04:43.124Z,37.58
2023-05-21T12:07:10.922Z,36.82
2023-05-21T12:09:45.346Z,36.44
2023-05-21T12:12:16.471Z,36.37
2023-05-21T12:14:52.684Z,37.94
2023-05-21T12:17:20.626Z,39.56
2023-05-21T12:19:47.850Z,40.58
2023-05-21T12:22:17.587Z,41.72
2023-05-21T12:24:47.480Z,42.21
2023-05-21T12:27:16.816Z,40.78
2023-05-21T12:29:47.106Z,39.41
2023-05-21T12:32:14.667Z,38.60
2023-05-21T12:34:48.825Z,38.31
2023-05-21T12:37:31.295Z,40.28
2023-05-21T12:39:59.188Z,40.81
2023-05-21T12:42:35.643Z,40.67
2023-05-21T12:45:11.642Z,41.95
2023-05-21T12:47:38.450Z,39.54
2023-05-21T12:50:12.011Z,40.94
2023-05-21T12:52:42.339Z,40.28
2023-05-21T12:55:10.497Z,39.78
2023-05-21T12:57:38.901Z,41.81
2023-05-21T13:00:10.446Z,41.67
2023-05-21T13:02:44.467Z,42.38
2023-05-21T13:05:17.508Z,40.33
2023-05-21T13:07:46.916Z,41.59
2023-05-21T13:10:16.105Z,41.03
2023-05-21T13:12:45.144Z,41.68
2023-05-21T13:15:11.924Z,40.63
2023-05-21T13:17:38.689Z,41.06
2023-05-21T13:20:15.884Z,39.69
2023-05-21T13:22:43.902Z,39.56
2023-05-21T13:25:14.062Z,38.47
2023-05-21T13:27:44.540Z,37.74
2023-05-21T13:30:11.810Z,36.49
2023-05-21T13:32:39.244Z,37.53
2023-05-21T13:35:06.478Z,37.93
2023-05-21T13:37:34.749Z,35.97
2023-05-21T13:40:01.434Z,34.42
2023-05-21T13:45:11.813Z,34.73
2023-05-21T13:47:40.482Z,33.49
2023-05-21T13:50:07.963Z,34.53
2023-05-21T13:52:36.827Z,34.71
2023-05-21T13:55:03.819Z,35.08
2023-05-21T13:57:31.142Z,35.12
2023-05-21T13:59:58.271Z,35.29
2023-05-21T14:02:25.125Z,34.57
2023-05-21T14:04:54.219Z,35.83
2023-05-21T14:07:21.601Z,36.89
2023-05-21T14:09:48.346Z,36.23
2023-05-21T14:12:14.954Z,36.54
2023-05-21T14:14:42.150Z,34.95
2023-05-21T14:17:08.830Z,36.11
2023-05-21T14:19:35.713Z,34.58
2023-05-21T14:22:02.589Z,33.71
2023-05-21T14:24:29.245Z,33.68
2023-05-21T14:26:55.906Z,35.25
2023-05-21T14:29:22.546Z,34.10
2023-05-21T14:31:49.327Z,33.10
2023-05-21T14:34:15.959Z,33.40
2023-05-21T14:36:42.617Z,32.94
2023-05-21T14:39:09.212Z,32.66
2023-05-21T14:41:41.025Z,32.30
2023-05-21T14:44:08.275Z,32.85
2023-05-21T14:46:37.192Z,32.69
2023-05-21T14:49:03.987Z,31.98
2023-05-21T14:51:31.644Z,32.43
2023-05-21T14:54:01.580Z,32.88
2023-05-21T14:56:28.325Z,33.25
2023-05-21T14:58:55.512Z,33.43
2023-05-21T15:01:22.483Z,34.38
2023-05-21T15:03:49.455Z,34.46
2023-05-21T15:06:16.231Z,34.02
2023-05-21T15:08:42.847Z,33.62
2023-05-21T15:11:10.048Z,35.03
2023-05-21T15:13:36.760Z,35.44
2023-05-21T15:16:03.657Z,35.89
2023-05-21T15:21:10.997Z,36.59
2023-05-21T15:23:37.563Z,36.57
2023-05-21T15:26:04.779Z,36.31
2023-05-21T15:28:31.396Z,36.41
2023-05-21T15:30:58.002Z,36.96
2023-05-21T15:33:24.678Z,37.62
2023-05-21T15:35:51.492Z,37.32
2023-05-21T15:38:18.161Z,37.10
2023-05-21T15:40:47.238Z,38.21
2023-05-21T15:43:13.861Z,36.59
2023-05-21T15:45:45.966Z,36.22
2023-05-21T15:48:13.176Z,37.66
2023-05-21T15:50:40.173Z,36.67
2023-05-21T15:53:06.844Z,36.23
2023-05-21T15:55:36.192Z,36.90
2023-05-21T15:58:03.711Z,36.31
2023-05-21T16:00:32.451Z,36.02
2023-05-21T16:02:59.143Z,35.97
2023-05-21T16:05:26.192Z,34.75
2023-05-21T16:07:52.816Z,36.07
2023-05-21T16:10:19.681Z,36.19
2023-05-21T16:12:46.906Z,36.47
2023-05-21T16:15:13.551Z,35.97
2023-05-21T16:17:40.201Z,35.81
2023-05-21T16:20:09.798Z,35.89
2023-05-21T16:22:36.544Z,35.07
2023-05-21T16:25:05.601Z,36.49
2023-05-21T16:27:32.275Z,35.79
2023-05-21T16:29:58.876Z,35.99
2023-05-21T16:32:25.578Z,35.11
2023-05-21T16:34:52.291Z,36.54
2023-05-21T16:37:21.965Z,36.52
2023-05-21T16:39:48.563Z,35.66
2023-05-21T16:42:18.414Z,36.58
2023-05-21T16:44:45.023Z,36.70
2023-05-21T16:47:11.573Z,36.90
2023-05-21T16:49:38.469Z,36.85
2023-05-21T16:52:08.193Z,38.26
2023-05-21T16:54:37.144Z,37.64
2023-05-21T16:57:03.904Z,38.26
2023-05-21T16:59:30.616Z,38.26
2023-05-21T17:01:59.730Z,38.16
2023-05-21T17:04:26.672Z,39.47
2023-05-21T17:06:53.559Z,38.30
2023-05-21T17:09:20.252Z,39.00
2023-05-21T17:11:47.041Z,38.83
2023-05-21T17:14:30.246Z,38.77
2023-05-21T17:17:00.351Z,39.60
2023-05-21T17:19:27.121Z,39.86
2023-05-21T17:21:56.933Z,39.66
2023-05-21T17:24:26.402Z,38.84
2023-05-21T17:26:53.738Z,39.32
2023-05-21T17:29:22.931Z,39.46
2023-05-21T17:31:52.161Z,40.42
2023-05-21T17:34:24.676Z,39.57
2023-05-21T17:36:51.806Z,40.91
2023-05-21T17:39:18.446Z,40.33
2023-05-21T17:41:47.529Z,41.70
2023-05-21T17:44:16.866Z,41.40
2023-05-21T17:46:43.957Z,42.24
2023-05-21T17:49:10.643Z,40.73
2023-05-21T17:51:37.530Z,40.95
2023-05-21T17:54:04.464Z,41.24
2023-05-21T17:56:34.427Z,41.80
2023-05-21T17:59:01.246Z,40.36
2023-05-21T18:01:28.516Z,41.45
2023-05-21T18:03:55.785Z,41.56
2023-05-21T18:06:22.504Z,41.19
2023-05-21T18:08:49.198Z,40.85
2023-05-21T18:11:15.947Z,41.19
2023-05-21T18:13:42.642Z,42.16
2023-05-21T18:16:09.376Z,40.98
2023-05-21T18:18:36.145Z,40.34
2023-05-21T18:21:04.891Z,40.79
2023-05-21T18:23:31.638Z,40.16
2023-05-21T18:25:58.311Z,40.17
2023-05-21T18:28:25.125Z,40.36
2023-05-21T18:30:51.761Z,41.65
2023-05-21T18:33:18.506Z,41.70
2023-05-21T18:35:45.293Z,41.43
2023-05-21T18:38:15.101Z,41.99
2023-05-21T18:40:41.744Z,42.23
2023-05-21T18:43:10.850Z,42.83
2023-05-21T18:45:37.553Z,43.32
2023-05-21T18:48:04.668Z,42.43
2023-05-21T18:50:32.554Z,43.68
2023-05-21T18:52:59.128Z,43.26
2023-05-21T18:55:28.861Z,43.85
2023-05-21T18:57:55.929Z,44.34
2023-05-21T19:00:22.773Z,44.99
2023-05-21T19:02:49.459Z,44.71
2023-05-21T19:05:16.457Z,44.84
2023-05-21T19:07:43.181Z,45.68
2023-05-21T19:10:11.385Z,46.50
2023-05-21T19:12:39.528Z,46.44
2023-05-21T19:15:09.034Z,46.63
2023-05-21T19:17:36.469Z,47.42
2023-05-21T19:20:05.306Z,47.23
2023-05-21T19:22:32.204Z,46.75
2023-05-21T19:24:59.868Z,46.70
2023-05-21T19:27:27.105Z,47.96
2023-05-21T19:29:53.704Z,47.01
2023-05-21T19:32:21.216Z,47.42
2023-05-21T19:34:48.346Z,48.06
2023-05-21T19:37:15.000Z,47.91
2023-05-21T19:39:42.425Z,48.89
2023-05-21T19:42:09.549Z,50.21
2023-05-21T19:44:40.414Z,50.99
2023-05-21T19:47:07.237Z,50.37
2023-05-21T19:49:34.017Z,49.84
2023-05-21T19:52:02.071Z,52.24
2023-05-21T19:54:28.693Z,51.79
2023-05-21T19:56:55.392Z,52.04
2023-05-21T19:59:22.039Z,51.95
2023-05-21T20:01:48.805Z,51.84
2023-05-21T20:04:15.826Z,52.34
2023-05-21T20:06:42.592Z,52.14
2023-05-21T20:09:10.885Z,52.34
2023-05-21T20:11:37.677Z,52.11
2023-05-21T20:14:04.521Z,51.96
2023-05-21T20:16:31.418Z,52.17
2023-05-21T20:18:58.416Z,52.01
2023-05-21T20:21:25.126Z,52.64
2023-05-21T20:23:53.864Z,53.15
2023-05-21T20:26:21.872Z,53.18
2023-05-21T20:28:48.492Z,54.00
2023-05-21T20:31:15.173Z,54.14
2023-05-21T20:33:41.954Z,53.89
2023-05-21T20:36:08.557Z,53.96
2023-05-21T20:38:37.210Z,53.17
2023-05-21T20:41:04.618Z,54.33
2023-05-21T20:43:31.347Z,53.78
2023-05-21T20:46:01.054Z,53.63
2023-05-21T20:48:29.275Z,54.03
2023-05-21T20:50:59.315Z,54.34
2023-05-21T20:53:26.803Z,54.27
2023-05-21T20:55:54.821Z,54.60
2023-05-21T20:58:25.752Z,54.31
2023-05-21T21:00:52.765Z,55.17
2023-05-21T21:03:21.631Z,54.91
2023-05-21T21:05:48.613Z,55.41
2023-05-21T21:08:18.178Z,55.13
2023-05-21T21:10:47.241Z,55.87
2023-05-21T21:13:14.222Z,55.05
2023-05-21T21:15:41.088Z,55.55
2023-05-21T21:18:07.902Z,56.67
2023-05-21T21:20:34.639Z,56.46
2023-05-21T21:23:01.219Z,57.27
2023-05-21T21:25:27.974Z,57.55
2023-05-21T21:27:54.628Z,57.06
2023-05-21T21:30:21.271Z,57.13
2023-05-21T21:32:49.515Z,56.89
2023-05-21T21:35:16.324Z,56.66
2023-05-21T21:37:43.026Z,57.46
2023-05-21T21:40:09.798Z,58.15
2023-05-21T21:42:36.483Z,57.48
2023-05-21T21:45:04.238Z,58.18
2023-05-21T21:47:31.082Z,57.79
2023-05-21T21:49:57.804Z,57.27
2023-05-21T21:52:27.438Z,56.50
2023-05-21T21:54:55.481Z,56.79
2023-05-21T21:57:22.163Z,56.84
2023-05-21T21:59:48.786Z,57.71
2023-05-21T22:02:17.062Z,58.02
2023-05-21T22:04:44.808Z,57.77
2023-05-21T22:07:18.120Z,57.64
2023-05-21T22:09:45.234Z,57.74
2023-05-21T22:12:13.473Z,58.01
2023-05-21T22:14:40.255Z,58.31
2023-05-21T22:17:09.063Z,57.72
2023-05-21T22:19:35.959Z,57.95
2023-05-21T22:22:04.198Z,56.95
2023-05-21T22:24:32.394Z,58.14
2023-05-21T22:26:59.924Z,57.70
2023-05-21T22:29:26.683Z,58.08
2023-05-21T22:31:53.323Z,58.25
2023-05-21T22:34:20.236Z,57.60
2023-05-21T22:36:47.047Z,56.41
2023-05-21T22:39:13.728Z,57.12
2023-05-21T22:41:42.506Z,57.13
2023-05-21T22:44:09.245Z,57.36
2023-05-21T22:46:38.349Z,56.92
2023-05-21T22:49:06.338Z,57.08
2023-05-21T22:51:34.831Z,56.18
2023-05-21T22:54:01.903Z,56.51
2023-05-21T22:56:28.715Z,56.38
2023-05-21T22:58:55.787Z,55.81
2023-05-21T23:01:22.475Z,55.68
2023-05-21T23:03:49.137Z,55.22
2023-05-21T23:06:15.796Z,55.39
2023-05-21T23:08:42.489Z,55.16
2023-05-21T23:11:09.077Z,54.85
2023-05-21T23:13:35.815Z,54.75
2023-05-21T23:16:03.315Z,54.99
2023-05-21T23:18:29.957Z,54.70
2023-05-21T23:20:57.235Z,55.28
2023-05-21T23:23:23.907Z,55.29
2023-05-21T23:25:52.388Z,55.12
2023-05-21T23:28:19.392Z,55.21
2023-05-21T23:30:46.597Z,56.44
2023-05-21T23:33:14.230Z,55.66
2023-05-21T23:35:40.914Z,55.91
2023-05-21T23:38:07.622Z,56.76
2023-05-21T23:40:34.238Z,57.27
2023-05-21T23:43:01.100Z,57.72
2023-05-21T23:45:27.666Z,58.93
2023-05-21T23:47:54.357Z,59.38
2023-05-21T23:50:20.978Z,60.90
2023-05-21T23:52:47.626Z,59.77
2023-05-21T23:55:14.948Z,60.51
2023-05-21T23:57:41.725Z,60.70
